Pagina principale
METAR-TAF:

METAR-TAF

Aeroporti :

Aeroporto Internazionale di Piarco

Port of Spain, Trinidad, Trinidad e Tobago

latitudine: 10-37N, longitudine: 061-21W, altezza: 12 m

Osservazione

Il bollettino è stato emesso 43 minuti fa, alle 22:00 UTC
Vento 14 kt da est
Temperature 27°C
Umidità 66%
Pressione 1015 hPa
Visibilità 10 km o più
Poco nuvoloso ad un'altezza di 2500 ft

METAR: TTPP 182200Z 10014KT 9999 FEW025 27/20 Q1015 NOSIG

Ora: 18:43 (22:43 UTC)

Previsione

Il bollettino è stato emesso 6 ore e 43 minuti fa, alle 16:00 UTC
Previsione valida dal 18 alle 18 UTC al 19 alle 18 UTC
Vento 15 kt da est
Visibilità 10 km o più
Poco nuvoloso ad un'altezza di 2500 ft
Evoluzione graduale
dal 19 alle 01 UTC al 19 alle 03 UTC
Vento 5 kt da est
Poco nuvoloso ad un'altezza di 1800 ft
Evoluzione graduale
dal 19 alle 12 UTC al 19 alle 14 UTC
Vento 15 kt da est

TAF: TTPP 181600Z 1818/1918 10015KT 9999 FEW025 BECMG 1901/1903 10005KT FEW018 BECMG 1912/1914 10015KT

Osservazioni e previsioni meteorologiche di più di 4000 aeroporti (messaggi METAR e TAF).

Le stazioni disponibili sono rappresentate dai dischi gialli e rossi sulla carta.

Puntare il mouse per vedere il nome della stazione.

Clicca sopra per visualizzare le osservazioni e previsioni meteorologiche.

Per cambiare la mappa : fare clic sui pulsanti verdi con una croce nera per ingrandire, il pulsante verde con un trattino per diminuire, o sulla freccia verde per le mappe adiacenti.


METAR-TAF: